Time;durP1;ratioP1;P1;durP2;ratioP2;P2;SDS_P1;SDS_P2;PMS_P1;PMS_P2;Temp;Humidity;BMP_temperature;BMP_pressure;BME280_temperature;BME280_humidity;BME280_pressure;Samples;Min_cycle;Max_cycle;Signal;HPM_P1;HPM_P2
2023/04/13 00:01:07;;;;;;;2.33;1.60;;;5.80;99.90;;;;;;4995172;28;20105;-84
2023/04/13 00:03:34;;;;;;;3.30;1.65;;;5.90;99.90;;;;;;5011380;28;20050;-85
2023/04/13 00:06:01;;;;;;;3.88;1.63;;;;;;;;;;5011688;28;20058;-86
2023/04/13 00:08:29;;;;;;;3.53;1.23;;;5.90;99.90;;;;;;5010438;28;20046;-86
2023/04/13 00:10:56;;;;;;;4.13;1.70;;;5.70;99.90;;;;;;5012432;28;20386;-87
2023/04/13 00:13:23;;;;;;;2.25;1.25;;;8.50;99.90;;;;;;5010285;28;20115;-85
2023/04/13 00:15:49;;;;;;;2.20;1.60;;;8.50;99.90;;;;;;4986112;28;20096;-85
2023/04/13 00:18:15;;;;;;;4.03;1.30;;;8.50;99.90;;;;;;5014463;28;20109;-85
2023/04/13 00:20:42;;;;;;;2.67;1.38;;;6.00;99.90;;;;;;5013905;28;20057;-85
2023/04/13 00:23:08;;;;;;;2.45;1.58;;;8.10;99.90;;;;;;4997019;28;20133;-84
2023/04/13 00:25:34;;;;;;;2.40;1.70;;;5.90;99.90;;;;;;5012764;28;20050;-85
2023/04/13 00:28:05;;;;;;;1.58;1.45;;;6.10;99.90;;;;;;5011059;28;20134;-88
2023/04/13 00:30:32;;;;;;;1.65;1.20;;;6.80;99.90;;;;;;5009578;28;20041;-87
2023/04/13 00:32:57;;;;;;;2.67;1.63;;;6.80;99.90;;;;;;5010726;28;20184;-88
2023/04/13 00:35:26;;;;;;;3.47;1.40;;;9.10;99.90;;;;;;5012524;28;20582;-83
2023/04/13 00:37:52;;;;;;;2.33;1.33;;;7.70;99.90;;;;;;5002526;28;20492;-87
2023/04/13 00:40:18;;;;;;;2.30;1.20;;;7.40;99.90;;;;;;5010544;28;20083;-86
2023/04/13 00:42:46;;;;;;;4.97;1.88;;;7.30;99.90;;;;;;5012789;28;20046;-84
2023/04/13 00:45:12;;;;;;;3.13;1.40;;;8.90;99.90;;;;;;5010552;28;20062;-85
2023/04/13 00:47:40;;;;;;;5.65;1.95;;;6.40;99.90;;;;;;5012256;28;20053;-85
2023/04/13 00:50:07;;;;;;;3.33;1.42;;;6.40;99.90;;;;;;4991205;28;20054;-84
2023/04/13 00:52:33;;;;;;;4.50;1.90;;;6.40;99.90;;;;;;4990056;28;20041;-86
2023/04/13 00:55:02;;;;;;;7.95;1.73;;;7.90;99.90;;;;;;4993843;28;20077;-85
2023/04/13 00:57:28;;;;;;;2.50;1.40;;;8.10;99.90;;;;;;5009324;28;20046;-85
2023/04/13 00:59:54;;;;;;;4.95;1.65;;;6.50;99.90;;;;;;5009378;28;20045;-86
2023/04/13 01:02:24;;;;;;;5.30;1.70;;;8.10;99.90;;;;;;5009678;28;20502;-87
2023/04/13 01:04:50;;;;;;;4.85;1.50;;;6.20;99.90;;;;;;4992184;28;20453;-88
2023/04/13 01:07:54;;;;;;;4.15;1.58;;;5.80;99.90;;;;;;5011531;28;20490;-90
2023/04/13 01:10:51;;;;;;;4.80;2.10;;;7.70;99.90;;;;;;5004547;28;20065;-89
2023/04/13 01:13:29;;;;;;;2.72;2.15;;;3.90;99.90;;;;;;4991140;28;20058;-89
2023/04/13 01:16:10;;;;;;;4.45;1.80;;;6.30;99.90;;;;;;4986926;28;20401;-86
2023/04/13 01:18:39;;;;;;;3.28;1.52;;;6.10;99.90;;;;;;5009227;28;20057;-86
2023/04/13 01:21:07;;;;;;;2.65;1.38;;;7.90;99.90;;;;;;4992773;28;20409;-88
2023/04/13 01:24:05;;;;;;;1.35;1.25;;;5.50;99.90;;;;;;4992413;28;20081;-87
2023/04/13 01:26:48;;;;;;;6.85;1.55;;;6.10;99.90;;;;;;5007610;28;20053;-86
2023/04/13 01:29:14;;;;;;;3.42;1.52;;;;;;;;;;5009354;28;20513;-85
2023/04/13 01:31:45;;;;;;;2.15;1.50;;;6.10;99.90;;;;;;5009442;28;20072;-86
2023/04/13 01:34:11;;;;;;;3.97;1.30;;;6.50;99.90;;;;;;4992406;28;20081;-87
2023/04/13 01:36:39;;;;;;;3.15;1.65;;;7.60;99.90;;;;;;4992304;28;20046;-86
2023/04/13 01:39:04;;;;;;;1.45;1.33;;;8.50;99.90;;;;;;5009069;28;20056;-86
2023/04/13 01:41:30;;;;;;;2.05;1.27;;;8.40;99.90;;;;;;4991814;28;20137;-86
2023/04/13 01:43:57;;;;;;;2.53;1.60;;;;;;;;;;5009013;28;20112;-85
2023/04/13 01:46:25;;;;;;;1.45;1.30;;;6.00;99.90;;;;;;4992336;28;20100;-86
2023/04/13 01:48:55;;;;;;;4.90;1.10;;;8.00;99.90;;;;;;5008250;28;20535;-87
2023/04/13 01:51:33;;;;;;;2.90;1.25;;;8.90;99.90;;;;;;5009861;28;20151;-85
2023/04/13 01:54:06;;;;;;;3.13;1.30;;;8.20;99.90;;;;;;5001197;28;20342;-86
2023/04/13 01:56:32;;;;;;;3.70;1.40;;;8.30;99.90;;;;;;5008354;28;20394;-87
2023/04/13 01:58:59;;;;;;;2.80;1.52;;;5.90;99.90;;;;;;5008595;28;20128;-86
2023/04/13 02:01:25;;;;;;;3.13;1.17;;;5.90;99.90;;;;;;4991671;28;20401;-85
2023/04/13 02:03:51;;;;;;;2.42;1.58;;;6.70;99.90;;;;;;5009128;28;20046;-85
2023/04/13 02:06:17;;;;;;;4.03;1.52;;;6.00;99.90;;;;;;5008990;28;20046;-88
2023/04/13 02:08:44;;;;;;;3.03;1.60;;;5.70;99.90;;;;;;5007159;28;20050;-85
2023/04/13 02:11:11;;;;;;;3.55;1.33;;;7.50;99.90;;;;;;5009143;28;20057;-86
2023/04/13 02:13:37;;;;;;;4.35;1.50;;;8.40;99.90;;;;;;4991823;28;20144;-86
2023/04/13 02:16:05;;;;;;;3.45;1.42;;;5.80;99.90;;;;;;4991548;28;20137;-86
2023/04/13 02:18:32;;;;;;;2.55;1.60;;;6.00;99.90;;;;;;5009349;28;20121;-86
2023/04/13 02:21:02;;;;;;;2.40;1.30;;;5.90;99.90;;;;;;4992281;28;20086;-85
2023/04/13 02:23:28;;;;;;;3.10;1.70;;;7.80;99.90;;;;;;5007171;28;20413;-86
2023/04/13 02:25:54;;;;;;;3.08;1.88;;;8.70;99.90;;;;;;5008286;28;20108;-86
2023/04/13 02:28:20;;;;;;;4.65;1.40;;;7.20;99.90;;;;;;4992123;28;20496;-85
2023/04/13 02:30:47;;;;;;;3.72;1.30;;;8.80;99.90;;;;;;5009758;28;20060;-85
2023/04/13 02:33:12;;;;;;;2.53;1.40;;;6.00;99.90;;;;;;5008506;28;20512;-87
2023/04/13 02:35:39;;;;;;;2.17;1.52;;;;;;;;;;5007941;28;20054;-86
2023/04/13 02:38:05;;;;;;;3.85;1.52;;;5.90;99.90;;;;;;5007958;28;20046;-86
2023/04/13 02:40:31;;;;;;;3.55;1.13;;;5.90;99.90;;;;;;4991330;28;20062;-86
2023/04/13 02:42:58;;;;;;;2.20;1.08;;;8.20;99.90;;;;;;5008582;28;20050;-86
2023/04/13 02:45:25;;;;;;;1.85;0.82;;;8.10;99.90;;;;;;5007334;28;20128;-85
2023/04/13 02:47:51;;;;;;;3.03;0.68;;;;;;;;;;5008734;28;20120;-85
2023/04/13 02:50:17;;;;;;;2.60;1.00;;;6.00;99.90;;;;;;4991196;28;20062;-86
2023/04/13 02:52:43;;;;;;;2.78;0.88;;;5.90;99.90;;;;;;4991403;28;20417;-85
2023/04/13 02:55:09;;;;;;;1.42;0.88;;;5.90;99.90;;;;;;5009995;28;20136;-86
2023/04/13 02:57:34;;;;;;;3.95;0.82;;;5.90;99.90;;;;;;4991144;28;20053;-85
2023/04/13 03:00:00;;;;;;;2.60;0.88;;;;;;;;;;5008000;28;20241;-85
2023/04/13 03:02:28;;;;;;;1.50;0.50;;;6.00;99.90;;;;;;5007692;28;20057;-85
2023/04/13 03:04:55;;;;;;;2.85;0.90;;;5.90;99.90;;;;;;4991499;28;20058;-87
2023/04/13 03:07:21;;;;;;;1.38;0.57;;;5.30;99.90;;;;;;5007848;28;20056;-87
2023/04/13 03:09:47;;;;;;;6.85;0.95;;;7.50;99.90;;;;;;5007830;28;20058;-86
2023/04/13 03:12:12;;;;;;;1.50;1.02;;;5.90;99.90;;;;;;5007845;28;20057;-86
2023/04/13 03:14:38;;;;;;;4.78;0.85;;;8.80;99.90;;;;;;5008970;28;20531;-85
2023/04/13 03:17:05;;;;;;;1.48;0.60;;;7.40;99.90;;;;;;5008444;28;20120;-86
2023/04/13 03:19:34;;;;;;;1.65;0.70;;;5.60;99.90;;;;;;5006790;28;20053;-87
2023/04/13 03:22:01;;;;;;;2.47;0.68;;;;;;;;;;5008104;28;20090;-87
2023/04/13 03:24:27;;;;;;;3.15;0.70;;;;;;;;;;5008623;28;20073;-86
2023/04/13 03:26:56;;;;;;;0.77;0.50;;;5.90;99.90;;;;;;5007924;28;20058;-86
2023/04/13 03:29:23;;;;;;;4.97;1.15;;;7.90;99.90;;;;;;4993771;28;20493;-85
2023/04/13 03:31:50;;;;;;;2.20;0.82;;;8.60;99.90;;;;;;5011660;28;20045;-89
2023/04/13 03:34:16;;;;;;;4.97;1.02;;;8.50;99.90;;;;;;5012400;28;20056;-85
2023/04/13 03:36:42;;;;;;;1.52;0.70;;;;;;;;;;5012311;28;20053;-86
2023/04/13 03:39:08;;;;;;;3.00;1.00;;;5.90;99.90;;;;;;5011151;28;20049;-87
2023/04/13 03:41:33;;;;;;;3.55;1.10;;;6.00;99.90;;;;;;5010468;28;20108;-86
2023/04/13 03:43:59;;;;;;;1.00;0.63;;;6.20;99.90;;;;;;5011264;28;20065;-87
2023/04/13 03:46:26;;;;;;;0.57;0.50;;;5.90;99.90;;;;;;5010807;28;20153;-87
2023/04/13 03:48:51;;;;;;;2.95;1.17;;;6.00;99.90;;;;;;5012345;28;20096;-86
2023/04/13 03:51:20;;;;;;;1.55;1.00;;;6.10;99.90;;;;;;5011676;28;20085;-85
2023/04/13 03:53:46;;;;;;;1.85;0.90;;;7.70;99.90;;;;;;4993840;28;20484;-86
2023/04/13 03:56:11;;;;;;;0.90;0.63;;;5.50;99.90;;;;;;5011295;28;20077;-85
2023/04/13 03:58:37;;;;;;;1.83;0.55;;;8.30;99.90;;;;;;5010496;28;20395;-87
2023/04/13 04:01:03;;;;;;;0.95;0.50;;;5.90;99.90;;;;;;5010390;28;20045;-86
2023/04/13 04:03:29;;;;;;;1.20;0.90;;;5.90;99.90;;;;;;5010173;28;20042;-87
2023/04/13 04:05:55;;;;;;;2.22;1.00;;;8.40;99.90;;;;;;4994403;28;20516;-87
2023/04/13 04:08:21;;;;;;;1.23;1.00;;;8.90;99.90;;;;;;4993236;28;20046;-86
2023/04/13 04:10:46;;;;;;;1.48;0.82;;;8.40;99.90;;;;;;4994477;28;20054;-86
2023/04/13 04:13:12;;;;;;;1.35;0.68;;;8.50;99.90;;;;;;5010470;28;20053;-87
2023/04/13 04:15:37;;;;;;;1.65;0.93;;;8.40;99.90;;;;;;4993261;28;20482;-86
2023/04/13 04:18:04;;;;;;;2.75;1.35;;;5.90;99.90;;;;;;5010949;28;20077;-87
2023/04/13 04:20:30;;;;;;;0.63;0.47;;;5.90;99.90;;;;;;4993446;28;20103;-87
2023/04/13 04:22:59;;;;;;;3.95;1.27;;;7.70;99.90;;;;;;5011077;28;20054;-87
2023/04/13 04:25:26;;;;;;;2.75;1.25;;;;;;;;;;5010133;28;20046;-86
2023/04/13 04:27:56;;;;;;;4.82;1.08;;;;;;;;;;4993522;28;20050;-86
2023/04/13 04:30:23;;;;;;;2.80;0.65;;;5.90;99.90;;;;;;4992865;28;20050;-86
2023/04/13 04:32:51;;;;;;;2.53;0.80;;;;;;;;;;5010388;28;20053;-86
2023/04/13 04:35:19;;;;;;;0.93;0.75;;;5.80;99.90;;;;;;5011863;28;20053;-86
2023/04/13 04:37:48;;;;;;;1.42;1.20;;;5.90;99.90;;;;;;5009671;28;20125;-87
2023/04/13 04:40:14;;;;;;;2.88;0.95;;;5.50;99.90;;;;;;4993509;28;20047;-87
2023/04/13 04:42:41;;;;;;;3.00;1.13;;;5.70;99.90;;;;;;4993287;28;20042;-86
2023/04/13 04:45:08;;;;;;;2.58;1.30;;;5.50;99.90;;;;;;4994055;28;20053;-87
2023/04/13 04:47:40;;;;;;;3.58;1.33;;;5.70;99.90;;;;;;4993077;28;20069;-86
2023/04/13 04:50:08;;;;;;;1.85;1.13;;;8.60;99.90;;;;;;5009219;28;20088;-86
2023/04/13 04:52:33;;;;;;;1.38;1.27;;;5.60;99.90;;;;;;4993145;28;20074;-86
2023/04/13 04:54:59;;;;;;;4.00;1.48;;;5.60;99.90;;;;;;5009995;28;20151;-86
2023/04/13 04:57:25;;;;;;;2.55;1.60;;;5.60;99.90;;;;;;5008643;28;20069;-87
2023/04/13 04:59:50;;;;;;;3.75;1.65;;;5.20;99.90;;;;;;5009830;28;20738;-87
2023/04/13 05:02:17;;;;;;;1.92;1.80;;;;;;;;;;5009900;28;20053;-88
2023/04/13 05:04:42;;;;;;;3.15;1.85;;;5.70;99.90;;;;;;4992278;28;20057;-86
2023/04/13 05:07:09;;;;;;;3.00;2.10;;;9.00;99.90;;;;;;5009845;28;20042;-86
2023/04/13 05:09:36;;;;;;;2.67;2.50;;;5.40;99.90;;;;;;4992804;28;20050;-86
2023/04/13 05:12:03;;;;;;;2.63;2.40;;;;;;;;;;5009021;28;20056;-87
2023/04/13 05:14:29;;;;;;;4.65;2.33;;;5.70;99.90;;;;;;4992736;28;20102;-87
2023/04/13 05:16:54;;;;;;;3.15;2.38;;;5.70;99.90;;;;;;4993506;28;20050;-88
2023/04/13 05:19:20;;;;;;;3.67;2.53;;;8.90;99.90;;;;;;5008412;28;20056;-86
2023/04/13 05:21:46;;;;;;;5.63;2.42;;;5.60;99.90;;;;;;5009467;28;20052;-87
2023/04/13 05:24:11;;;;;;;3.95;3.00;;;5.80;99.90;;;;;;4992683;28;20053;-87
2023/04/13 05:26:37;;;;;;;4.00;2.63;;;;;;;;;;5008207;28;20049;-86
2023/04/13 05:29:05;;;;;;;2.63;2.42;;;5.80;99.90;;;;;;4992954;28;20049;-87
2023/04/13 05:31:31;;;;;;;4.93;2.95;;;7.00;99.90;;;;;;5010351;28;20148;-86
2023/04/13 05:33:56;;;;;;;3.47;2.78;;;8.50;99.90;;;;;;5008704;28;20045;-89
2023/04/13 05:36:22;;;;;;;5.40;2.60;;;6.90;99.90;;;;;;5008904;28;20084;-87
2023/04/13 05:38:48;;;;;;;6.30;2.78;;;3.50;99.90;;;;;;4992732;28;20042;-87
2023/04/13 05:41:14;;;;;;;3.83;2.60;;;;;;;;;;5009503;28;20076;-88
2023/04/13 05:43:40;;;;;;;2.85;2.00;;;5.80;99.90;;;;;;4992492;28;20053;-87
2023/04/13 05:46:06;;;;;;;2.45;2.22;;;9.10;99.90;;;;;;5008238;28;20072;-86
2023/04/13 05:48:33;;;;;;;4.95;2.95;;;;;;;;;;5009340;28;20485;-87
2023/04/13 05:50:59;;;;;;;4.20;2.17;;;;;;;;;;5008781;28;20045;-87
2023/04/13 05:53:25;;;;;;;4.50;2.17;;;5.80;99.90;;;;;;4991644;28;20156;-87
2023/04/13 05:55:53;;;;;;;6.85;3.13;;;7.80;99.90;;;;;;5009020;28;20046;-87
2023/04/13 05:58:19;;;;;;;5.97;2.35;;;9.50;99.90;;;;;;4976367;28;20089;-87
2023/04/13 06:00:47;;;;;;;3.83;1.75;;;;;;;;;;4975707;28;20133;-88
2023/04/13 06:03:14;;;;;;;4.40;2.72;;;5.90;99.90;;;;;;4976314;28;20046;-86
2023/04/13 06:05:41;;;;;;;2.58;2.00;;;;;;;;;;5009495;28;20053;-87
2023/04/13 06:08:09;;;;;;;9.65;3.40;;;;;;;;;;4991976;28;20144;-86
2023/04/13 06:10:35;;;;;;;5.50;2.63;;;6.10;99.90;;;;;;4991622;28;20405;-88
2023/04/13 06:13:03;;;;;;;3.35;1.70;;;;;;;;;;5009567;28;20108;-88
2023/04/13 06:15:29;;;;;;;5.80;2.17;;;6.20;99.90;;;;;;4991523;28;20050;-86
2023/04/13 06:17:55;;;;;;;9.00;2.70;;;;;;;;;;4992314;28;20093;-87
2023/04/13 06:20:22;;;;;;;3.92;2.85;;;6.10;99.90;;;;;;4991412;28;20501;-86
2023/04/13 06:22:48;;;;;;;4.22;2.45;;;7.20;99.90;;;;;;4991661;28;20124;-85
2023/04/13 06:25:13;;;;;;;3.70;2.30;;;8.30;99.90;;;;;;4992232;28;20068;-85
2023/04/13 06:27:42;;;;;;;5.35;3.00;;;6.20;99.90;;;;;;4991911;28;20426;-86
2023/04/13 06:30:09;;;;;;;4.75;1.60;;;8.00;99.90;;;;;;4991609;28;20057;-87
2023/04/13 06:32:35;;;;;;;5.38;1.90;;;6.10;99.90;;;;;;4991695;28;20038;-86
2023/04/13 06:35:02;;;;;;;6.72;1.70;;;8.50;99.90;;;;;;4992635;28;20057;-87
2023/04/13 06:37:29;;;;;;;5.20;2.00;;;6.10;99.90;;;;;;4975131;28;20054;-86
2023/04/13 06:39:56;;;;;;;4.95;2.00;;;6.20;99.90;;;;;;4975768;28;20046;-86
2023/04/13 06:42:22;;;;;;;6.47;2.35;;;6.10;99.90;;;;;;4983364;28;20081;-88
2023/04/13 06:44:48;;;;;;;10.10;4.50;;;5.30;99.90;;;;;;4976111;28;20096;-86
2023/04/13 06:47:14;;;;;;;5.05;2.75;;;6.10;99.90;;;;;;4976327;28;20054;-86
2023/04/13 06:49:40;;;;;;;5.20;2.80;;;7.80;99.90;;;;;;4974343;28;20089;-86
2023/04/13 06:52:06;;;;;;;6.80;3.80;;;6.30;99.90;;;;;;4976037;28;20049;-85
2023/04/13 06:54:32;;;;;;;4.63;2.70;;;8.70;99.90;;;;;;4991637;28;20050;-85
2023/04/13 06:56:58;;;;;;;9.45;3.38;;;7.60;99.90;;;;;;5009760;28;20046;-87
2023/04/13 06:59:23;;;;;;;9.27;3.75;;;5.80;99.90;;;;;;4992050;28;20050;-86
2023/04/13 07:01:49;;;;;;;4.18;2.97;;;;;;;;;;4992084;28;20085;-87
2023/04/13 07:04:15;;;;;;;11.23;4.20;;;6.30;99.90;;;;;;4993852;28;20489;-86
2023/04/13 07:06:41;;;;;;;10.23;5.20;;;8.60;99.90;;;;;;4995399;28;20061;-88
2023/04/13 07:09:06;;;;;;;9.48;4.28;;;5.90;99.90;;;;;;4995597;28;20466;-87
2023/04/13 07:11:32;;;;;;;14.10;4.53;;;7.00;99.90;;;;;;4978403;28;20044;-87
2023/04/13 07:13:58;;;;;;;11.35;3.80;;;6.00;99.90;;;;;;4979648;28;20149;-87
2023/04/13 07:16:27;;;;;;;7.13;4.10;;;;;;;;;;4971590;28;20037;-86
2023/04/13 07:18:53;;;;;;;13.48;3.83;;;6.50;99.90;;;;;;4978489;28;20054;-86
2023/04/13 07:21:18;;;;;;;16.50;5.05;;;6.60;99.90;;;;;;4962491;28;21071;-86
2023/04/13 07:23:44;;;;;;;12.55;5.10;;;;;;;;;;5012515;28;20045;-86
2023/04/13 07:26:13;;;;;;;11.32;4.07;;;6.60;99.90;;;;;;4978604;28;20061;-86
2023/04/13 07:28:39;;;;;;;11.15;3.45;;;8.90;99.90;;;;;;4978631;28;20050;-87
2023/04/13 07:31:05;;;;;;;11.23;3.55;;;9.00;99.90;;;;;;4995532;28;20196;-88
2023/04/13 07:33:31;;;;;;;10.15;4.25;;;6.60;99.90;;;;;;4993984;28;20049;-87
2023/04/13 07:35:57;;;;;;;15.75;6.97;;;;;;;;;;4979110;28;20108;-87
2023/04/13 07:38:23;;;;;;;10.70;3.67;;;6.60;99.90;;;;;;4994342;28;20050;-87
2023/04/13 07:40:49;;;;;;;10.38;3.20;;;7.50;99.90;;;;;;4978237;28;20056;-87
2023/04/13 07:43:14;;;;;;;9.55;3.50;;;8.80;99.90;;;;;;4978801;28;20107;-86
2023/04/13 07:45:40;;;;;;;6.70;2.30;;;8.80;99.90;;;;;;4991901;28;20132;-87
2023/04/13 07:48:07;;;;;;;6.63;2.80;;;;;;;;;;4995024;28;20584;-86
2023/04/13 07:50:34;;;;;;;7.65;2.58;;;;;;;;;;4978167;28;20708;-87
2023/04/13 07:53:02;;;;;;;7.30;2.95;;;6.90;99.90;;;;;;4994353;28;20124;-88
2023/04/13 07:55:28;;;;;;;6.32;1.88;;;9.80;99.90;;;;;;4986367;28;20053;-88
2023/04/13 07:57:54;;;;;;;5.82;1.83;;;4.60;99.90;;;;;;5011791;28;20049;-86
2023/04/13 08:00:21;;;;;;;7.43;1.98;;;6.80;99.90;;;;;;4977722;28;20112;-87
2023/04/13 08:02:47;;;;;;;9.68;1.90;;;7.10;99.90;;;;;;4994596;28;20038;-87
2023/04/13 08:05:13;;;;;;;2.88;1.33;;;;;;;;;;5011655;28;20054;-86
2023/04/13 08:07:40;;;;;;;5.18;1.85;;;7.20;99.90;;;;;;4993952;28;20076;-88
2023/04/13 08:10:07;;;;;;;5.00;1.45;;;10.50;99.90;;;;;;4994535;28;20089;-87
2023/04/13 08:12:33;;;;;;;5.47;0.90;;;;;;;;;;4993255;28;20485;-88
2023/04/13 08:14:58;;;;;;;4.53;1.10;;;7.30;99.90;;;;;;4977919;28;20497;-87
2023/04/13 08:17:24;;;;;;;4.30;1.00;;;7.10;99.90;;;;;;4977636;28;20112;-86
2023/04/13 08:19:50;;;;;;;7.47;1.80;;;10.10;99.90;;;;;;4977364;28;20432;-87
2023/04/13 08:22:15;;;;;;;5.03;1.67;;;6.80;99.90;;;;;;4994261;28;20121;-85
2023/04/13 08:24:41;;;;;;;5.65;2.42;;;9.40;99.90;;;;;;4993751;28;20060;-86
2023/04/13 08:27:07;;;;;;;10.02;2.97;;;7.10;99.90;;;;;;4993750;28;20401;-86
2023/04/13 08:29:33;;;;;;;4.28;1.15;;;7.10;99.90;;;;;;5011169;28;20065;-86
2023/04/13 08:31:58;;;;;;;7.18;1.63;;;7.80;99.90;;;;;;4994222;28;20088;-86
2023/04/13 08:34:24;;;;;;;5.57;1.10;;;9.80;99.90;;;;;;4993333;28;20053;-87
2023/04/13 08:36:50;;;;;;;5.53;1.50;;;7.20;99.90;;;;;;4978066;28;20068;-87
2023/04/13 08:39:16;;;;;;;5.40;1.08;;;7.90;99.90;;;;;;4993670;28;20524;-86
2023/04/13 08:41:46;;;;;;;4.70;1.00;;;8.60;99.90;;;;;;4992719;28;20049;-87
2023/04/13 08:44:13;;;;;;;6.63;0.93;;;7.20;99.90;;;;;;4977886;28;20053;-86
2023/04/13 08:46:44;;;;;;;3.35;0.88;;;7.30;99.90;;;;;;5010998;28;20111;-87
2023/04/13 08:49:11;;;;;;;5.35;0.70;;;7.20;99.90;;;;;;4993071;28;20053;-86
2023/04/13 08:51:38;;;;;;;5.95;0.75;;;7.40;99.90;;;;;;4977038;28;20053;-86
2023/04/13 08:54:04;;;;;;;4.90;0.82;;;7.40;99.90;;;;;;5011206;28;20054;-87
2023/04/13 08:56:31;;;;;;;6.28;1.05;;;;;;;;;;4981419;28;20559;-86
2023/04/13 08:59:06;;;;;;;3.55;0.70;;;7.60;99.90;;;;;;5011129;28;20120;-87
2023/04/13 09:01:35;;;;;;;4.10;1.02;;;10.60;99.90;;;;;;4992366;28;20079;-86
2023/04/13 09:04:11;;;;;;;4.70;1.05;;;8.10;99.90;;;;;;4993365;28;20180;-87
2023/04/13 09:06:39;;;;;;;3.50;1.05;;;7.60;99.90;;;;;;4985278;28;20568;-87
2023/04/13 09:09:14;;;;;;;4.43;1.58;;;8.60;99.90;;;;;;4992804;28;20054;-87
2023/04/13 09:11:41;;;;;;;5.18;1.02;;;7.50;99.90;;;;;;5001504;28;20095;-88
2023/04/13 09:14:08;;;;;;;2.95;0.90;;;7.50;99.90;;;;;;5010058;28;20057;-88
2023/04/13 09:16:41;;;;;;;4.55;1.17;;;9.40;99.90;;;;;;5008921;28;20529;-87
2023/04/13 09:19:07;;;;;;;7.82;2.05;;;6.90;99.90;;;;;;5009454;28;20052;-86
2023/04/13 09:21:42;;;;;;;6.72;1.92;;;10.80;99.90;;;;;;5010222;28;20489;-87
2023/04/13 09:24:08;;;;;;;5.93;1.43;;;7.70;99.90;;;;;;4992839;28;20149;-87
2023/04/13 09:26:47;;;;;;;4.10;1.33;;;7.90;99.90;;;;;;5009398;28;20042;-87
2023/04/13 09:29:18;;;;;;;3.65;1.40;;;9.60;99.90;;;;;;5009122;28;20092;-87
2023/04/13 09:31:45;;;;;;;4.55;1.10;;;7.90;99.90;;;;;;4992591;28;20053;-89
2023/04/13 09:34:11;;;;;;;3.50;0.60;;;;;;;;;;4992916;28;20049;-88
2023/04/13 09:36:37;;;;;;;6.18;0.75;;;7.80;99.90;;;;;;4992207;28;20770;-87
2023/04/13 09:39:04;;;;;;;1.00;0.13;;;9.30;99.90;;;;;;5009233;28;20053;-89
2023/04/13 09:41:30;;;;;;;0.77;0.00;;;9.00;99.90;;;;;;5008674;28;20095;-88
2023/04/13 09:43:57;;;;;;;0.10;0.05;;;7.30;99.90;;;;;;4992307;28;20571;-88
2023/04/13 09:46:23;;;;;;;0.40;0.10;;;9.30;99.90;;;;;;4992372;28;20579;-87
2023/04/13 09:49:00;;;;;;;0.50;0.00;;;9.70;99.90;;;;;;5009069;28;20042;-87
2023/04/13 09:51:37;;;;;;;0.35;0.10;;;9.50;99.90;;;;;;4991954;28;20046;-87
2023/04/13 09:54:06;;;;;;;1.58;0.20;;;;;;;;;;4992813;28;20049;-87
2023/04/13 09:56:46;;;;;;;2.40;0.30;;;6.80;99.90;;;;;;5008260;28;20092;-87
2023/04/13 09:59:13;;;;;;;3.20;0.32;;;6.70;99.90;;;;;;4991891;28;20050;-88
2023/04/13 10:01:42;;;;;;;2.33;0.20;;;6.70;99.90;;;;;;4991743;28;20469;-87
2023/04/13 10:04:08;;;;;;;1.88;0.15;;;6.90;99.90;;;;;;5009116;28;20108;-88
2023/04/13 10:06:39;;;;;;;0.50;0.00;;;9.60;99.90;;;;;;4991637;28;20547;-88
2023/04/13 10:09:32;;;;;;;1.65;0.20;;;4.30;99.90;;;;;;5008818;28;20452;-88
2023/04/13 10:12:00;;;;;;;1.30;0.10;;;;;;;;;;4986406;28;20522;-87
2023/04/13 10:14:31;;;;;;;1.23;0.10;;;7.00;99.90;;;;;;4991937;28;20054;-88
2023/04/13 10:17:19;;;;;;;1.48;0.10;;;7.30;99.90;;;;;;5009256;28;20049;-88
2023/04/13 10:19:50;;;;;;;3.67;0.13;;;7.20;99.90;;;;;;4990826;28;20052;-87
2023/04/13 10:22:22;;;;;;;0.95;0.20;;;9.90;99.90;;;;;;5009890;28;20056;-88
2023/04/13 10:24:51;;;;;;;0.43;0.10;;;8.60;99.90;;;;;;5008950;28;20073;-88
2023/04/13 10:27:22;;;;;;;1.10;0.10;;;10.60;99.90;;;;;;4991749;28;20045;-87
2023/04/13 10:29:48;;;;;;;1.40;0.20;;;7.80;99.90;;;;;;4992440;28;20397;-89
2023/04/13 10:32:25;;;;;;;1.58;0.40;;;9.40;99.90;;;;;;5008766;28;20145;-88
2023/04/13 10:34:52;;;;;;;2.85;0.20;;;9.60;99.90;;;;;;5001272;28;20054;-87
2023/04/13 10:37:23;;;;;;;0.98;0.20;;;8.50;99.90;;;;;;5009604;28;20112;-87
2023/04/13 10:39:59;;;;;;;1.08;0.15;;;10.70;99.90;;;;;;5004800;28;20045;-88
2023/04/13 10:42:25;;;;;;;2.72;0.70;;;10.90;99.90;;;;;;4995907;28;20116;-88
2023/04/13 10:44:52;;;;;;;1.45;0.32;;;10.30;99.90;;;;;;5013945;28;20492;-88
2023/04/13 10:47:21;;;;;;;2.22;0.30;;;11.20;99.90;;;;;;5012021;28;20049;-88
2023/04/13 10:49:48;;;;;;;2.55;0.43;;;8.50;99.90;;;;;;4988345;28;20115;-89
2023/04/13 10:52:15;;;;;;;1.58;0.63;;;8.60;99.90;;;;;;4995762;28;20038;-88
2023/04/13 10:54:43;;;;;;;3.67;0.80;;;8.50;99.90;;;;;;4994737;28;20559;-88
2023/04/13 10:57:10;;;;;;;6.93;0.90;;;10.90;99.90;;;;;;5012335;28;20116;-88
2023/04/13 10:59:54;;;;;;;2.88;0.90;;;8.80;99.90;;;;;;5011322;28;20050;-88
2023/04/13 11:02:20;;;;;;;4.78;0.68;;;;;;;;;;5011381;28;20078;-88
2023/04/13 11:04:47;;;;;;;2.45;0.45;;;8.40;99.90;;;;;;5004606;28;20544;-88
2023/04/13 11:07:22;;;;;;;1.73;0.52;;;10.80;99.90;;;;;;5013659;28;20112;-89
2023/04/13 11:09:51;;;;;;;4.35;0.77;;;8.00;99.90;;;;;;5003586;28;20497;-88
2023/04/13 11:12:18;;;;;;;4.43;2.63;;;;;;;;;;5012661;28;20042;-88
2023/04/13 11:14:46;;;;;;;4.30;1.40;;;7.70;99.90;;;;;;5014328;28;20456;-88
2023/04/13 11:17:14;;;;;;;2.90;0.45;;;7.70;99.90;;;;;;4996449;28;20050;-87
2023/04/13 11:19:50;;;;;;;14.60;1.15;;;10.50;99.90;;;;;;5012437;28;20068;-87
2023/04/13 11:22:26;;;;;;;6.55;1.13;;;10.50;99.90;;;;;;5012350;28;20062;-88
2023/04/13 11:24:52;;;;;;;8.18;1.33;;;10.30;99.90;;;;;;4988316;28;20042;-87
2023/04/13 11:27:24;;;;;;;11.18;1.65;;;8.10;99.90;;;;;;5013275;28;20112;-88
2023/04/13 11:30:03;;;;;;;11.48;2.25;;;10.80;99.90;;;;;;4987021;28;20034;-88
2023/04/13 11:32:31;;;;;;;15.40;2.83;;;;;;;;;;4994688;28;20076;-88
2023/04/13 11:35:08;;;;;;;12.93;2.53;;;8.30;99.90;;;;;;5011718;28;20045;-88
2023/04/13 11:37:40;;;;;;;18.90;3.95;;;8.30;99.90;;;;;;4993897;28;20584;-87
2023/04/13 11:40:19;;;;;;;11.43;2.05;;;9.10;99.90;;;;;;4995073;28;20050;-88
2023/04/13 11:42:54;;;;;;;13.65;2.28;;;8.60;99.90;;;;;;5011421;28;20062;-88
2023/04/13 11:45:22;;;;;;;17.45;2.28;;;8.50;99.90;;;;;;5012462;28;20137;-88
2023/04/13 11:47:52;;;;;;;10.57;2.42;;;8.90;99.90;;;;;;4995946;28;20125;-88
2023/04/13 11:50:19;;;;;;;8.20;2.22;;;9.10;99.90;;;;;;5010059;28;20057;-87
2023/04/13 11:52:46;;;;;;;16.95;2.63;;;9.20;99.90;;;;;;5011421;28;20057;-88
2023/04/13 11:55:14;;;;;;;10.57;2.05;;;9.30;99.90;;;;;;5011856;28;20060;-89
2023/04/13 11:57:40;;;;;;;10.20;2.05;;;12.00;99.90;;;;;;4993550;28;20425;-88
2023/04/13 12:00:26;;;;;;;12.40;2.47;;;11.90;99.90;;;;;;4994324;28;20500;-89
2023/04/13 12:02:58;;;;;;;8.68;2.17;;;9.30;99.90;;;;;;4985171;28;20405;-88
2023/04/13 12:05:26;;;;;;;11.23;2.30;;;9.40;99.90;;;;;;5009898;28;20049;-88
2023/04/13 12:07:53;;;;;;;12.43;2.33;;;9.40;99.90;;;;;;5010720;28;20543;-88
2023/04/13 12:10:24;;;;;;;10.50;1.67;;;8.40;99.90;;;;;;4994526;28;20112;-89
2023/04/13 12:12:57;;;;;;;13.25;1.83;;;9.40;99.90;;;;;;5010216;28;20038;-89
2023/04/13 12:15:28;;;;;;;15.13;2.45;;;11.70;99.90;;;;;;5010451;28;20054;-89
2023/04/13 12:18:01;;;;;;;8.57;1.60;;;9.60;99.90;;;;;;4987260;28;20045;-88
2023/04/13 12:20:38;;;;;;;15.15;2.38;;;12.30;99.90;;;;;;4993500;28;20046;-88
2023/04/13 12:23:16;;;;;;;11.85;2.25;;;10.40;99.90;;;;;;5003822;28;20058;-87
2023/04/13 12:25:54;;;;;;;11.40;1.88;;;11.20;99.90;;;;;;4993176;28;20049;-87
2023/04/13 12:28:19;;;;;;;8.48;1.48;;;9.30;99.90;;;;;;5010220;28;20057;-88
2023/04/13 12:30:46;;;;;;;9.23;1.25;;;9.30;99.90;;;;;;5010192;28;20057;-89
2023/04/13 12:33:12;;;;;;;13.93;2.63;;;11.50;99.90;;;;;;5010330;28;20058;-89
2023/04/13 12:35:38;;;;;;;13.48;2.10;;;11.80;99.90;;;;;;5010065;28;20057;-88
2023/04/13 12:38:05;;;;;;;15.05;2.03;;;;;;;;;;4993969;28;20053;-88
2023/04/13 12:40:32;;;;;;;13.07;3.08;;;;;;;;;;5010301;28;20086;-89
2023/04/13 12:42:58;;;;;;;8.38;1.90;;;;;;;;;;5010427;28;20058;-88
2023/04/13 12:45:24;;;;;;;9.00;1.63;;;;;;;;;;4993808;28;20054;-88
2023/04/13 12:47:50;;;;;;;11.75;1.50;;;;;;;;;;5010108;28;20382;-89
2023/04/13 12:50:17;;;;;;;7.45;1.38;;;;;;;;;;5011586;28;20076;-88
2023/04/13 12:52:44;;;;;;;6.57;1.20;;;;;;;;;;5009547;28;20417;-89
2023/04/13 12:55:10;;;;;;;9.05;1.88;;;9.10;99.90;;;;;;4993976;28;20058;-89
2023/04/13 12:57:38;;;;;;;9.38;1.40;;;11.60;99.90;;;;;;5009524;28;20044;-87
2023/04/13 13:00:09;;;;;;;11.40;2.42;;;9.30;99.90;;;;;;4993116;28;20046;-88
2023/04/13 13:02:36;;;;;;;9.13;1.42;;;;;;;;;;4992923;28;20425;-88
2023/04/13 13:05:03;;;;;;;9.38;2.83;;;9.20;99.90;;;;;;5010121;28;20064;-88
2023/04/13 13:07:28;;;;;;;9.40;1.70;;;9.70;99.90;;;;;;4992694;28;20142;-88
2023/04/13 13:09:57;;;;;;;10.02;1.98;;;11.70;99.90;;;;;;4994645;28;20133;-89
2023/04/13 13:12:28;;;;;;;7.07;1.67;;;;;;;;;;5009272;28;20575;-88